sensor_id;sensor_type;location;lat;lon;timestamp;P1;durP1;ratioP1;P2;durP2;ratioP2
10659;SDS011;5378;53.206;13.316;2023-08-17T00:02:19;3.10;;;2.17;;
10659;SDS011;5378;53.206;13.316;2023-08-17T00:05:07;7.03;;;2.30;;
10659;SDS011;5378;53.206;13.316;2023-08-17T00:07:54;7.00;;;2.00;;
10659;SDS011;5378;53.206;13.316;2023-08-17T00:10:42;3.63;;;1.90;;
10659;SDS011;5378;53.206;13.316;2023-08-17T00:13:29;3.10;;;1.67;;
10659;SDS011;5378;53.206;13.316;2023-08-17T00:16:17;3.17;;;1.93;;
10659;SDS011;5378;53.206;13.316;2023-08-17T00:19:04;5.90;;;2.37;;
10659;SDS011;5378;53.206;13.316;2023-08-17T00:21:51;2.77;;;1.57;;
10659;SDS011;5378;53.206;13.316;2023-08-17T00:24:38;5.07;;;1.90;;
10659;SDS011;5378;53.206;13.316;2023-08-17T00:27:28;3.33;;;1.60;;
10659;SDS011;5378;53.206;13.316;2023-08-17T00:30:15;2.60;;;1.30;;
10659;SDS011;5378;53.206;13.316;2023-08-17T00:33:03;2.57;;;1.80;;
10659;SDS011;5378;53.206;13.316;2023-08-17T00:35:50;5.17;;;1.97;;
10659;SDS011;5378;53.206;13.316;2023-08-17T00:38:37;4.73;;;1.67;;
10659;SDS011;5378;53.206;13.316;2023-08-17T00:41:24;3.63;;;1.30;;
10659;SDS011;5378;53.206;13.316;2023-08-17T00:44:15;16.43;;;1.70;;
10659;SDS011;5378;53.206;13.316;2023-08-17T00:47:02;2.93;;;1.80;;
10659;SDS011;5378;53.206;13.316;2023-08-17T00:49:50;3.27;;;1.50;;
10659;SDS011;5378;53.206;13.316;2023-08-17T00:52:38;5.20;;;1.83;;
10659;SDS011;5378;53.206;13.316;2023-08-17T00:55:27;7.00;;;2.10;;
10659;SDS011;5378;53.206;13.316;2023-08-17T00:58:14;3.10;;;1.43;;
10659;SDS011;5378;53.206;13.316;2023-08-17T01:01:03;4.40;;;2.40;;
10659;SDS011;5378;53.206;13.316;2023-08-17T01:03:51;6.40;;;1.90;;
10659;SDS011;5378;53.206;13.316;2023-08-17T01:06:38;2.97;;;1.87;;
10659;SDS011;5378;53.206;13.316;2023-08-17T01:09:25;4.43;;;2.10;;
10659;SDS011;5378;53.206;13.316;2023-08-17T01:12:13;2.90;;;1.63;;
10659;SDS011;5378;53.206;13.316;2023-08-17T01:15:08;5.50;;;2.00;;
10659;SDS011;5378;53.206;13.316;2023-08-17T01:18:04;3.77;;;2.00;;
10659;SDS011;5378;53.206;13.316;2023-08-17T01:20:57;3.90;;;2.37;;
10659;SDS011;5378;53.206;13.316;2023-08-17T01:23:46;3.67;;;1.80;;
10659;SDS011;5378;53.206;13.316;2023-08-17T01:26:36;5.03;;;2.10;;
10659;SDS011;5378;53.206;13.316;2023-08-17T01:29:23;6.07;;;2.20;;
10659;SDS011;5378;53.206;13.316;2023-08-17T01:32:12;2.20;;;1.70;;
10659;SDS011;5378;53.206;13.316;2023-08-17T01:35:07;2.60;;;2.03;;
10659;SDS011;5378;53.206;13.316;2023-08-17T01:38:02;2.40;;;1.97;;
10659;SDS011;5378;53.206;13.316;2023-08-17T01:40:54;4.93;;;1.90;;
10659;SDS011;5378;53.206;13.316;2023-08-17T01:43:43;6.70;;;2.40;;
10659;SDS011;5378;53.206;13.316;2023-08-17T01:46:33;3.17;;;2.40;;
10659;SDS011;5378;53.206;13.316;2023-08-17T01:49:20;4.30;;;2.50;;
10659;SDS011;5378;53.206;13.316;2023-08-17T01:52:07;2.90;;;2.33;;
10659;SDS011;5378;53.206;13.316;2023-08-17T01:54:54;6.57;;;2.57;;
10659;SDS011;5378;53.206;13.316;2023-08-17T01:57:43;3.17;;;2.50;;
10659;SDS011;5378;53.206;13.316;2023-08-17T02:00:30;9.33;;;1.93;;
10659;SDS011;5378;53.206;13.316;2023-08-17T02:03:17;5.70;;;2.50;;
10659;SDS011;5378;53.206;13.316;2023-08-17T02:06:04;3.27;;;1.83;;
10659;SDS011;5378;53.206;13.316;2023-08-17T02:08:52;7.20;;;1.77;;
10659;SDS011;5378;53.206;13.316;2023-08-17T02:11:41;3.83;;;2.23;;
10659;SDS011;5378;53.206;13.316;2023-08-17T02:14:30;13.03;;;3.17;;
10659;SDS011;5378;53.206;13.316;2023-08-17T02:17:17;3.57;;;2.20;;
10659;SDS011;5378;53.206;13.316;2023-08-17T02:20:05;4.80;;;1.80;;
10659;SDS011;5378;53.206;13.316;2023-08-17T02:22:54;8.47;;;2.80;;
10659;SDS011;5378;53.206;13.316;2023-08-17T02:25:42;4.43;;;2.10;;
10659;SDS011;5378;53.206;13.316;2023-08-17T02:28:29;6.10;;;2.00;;
10659;SDS011;5378;53.206;13.316;2023-08-17T02:31:17;7.00;;;2.00;;
10659;SDS011;5378;53.206;13.316;2023-08-17T02:34:04;4.77;;;1.80;;
10659;SDS011;5378;53.206;13.316;2023-08-17T02:36:52;7.33;;;1.77;;
10659;SDS011;5378;53.206;13.316;2023-08-17T02:39:39;3.17;;;2.23;;
10659;SDS011;5378;53.206;13.316;2023-08-17T02:42:27;6.53;;;2.03;;
10659;SDS011;5378;53.206;13.316;2023-08-17T02:45:14;4.60;;;2.50;;
10659;SDS011;5378;53.206;13.316;2023-08-17T02:48:02;5.23;;;2.07;;
10659;SDS011;5378;53.206;13.316;2023-08-17T02:50:50;3.03;;;1.63;;
10659;SDS011;5378;53.206;13.316;2023-08-17T02:53:37;6.80;;;2.40;;
10659;SDS011;5378;53.206;13.316;2023-08-17T02:56:24;4.63;;;2.70;;
10659;SDS011;5378;53.206;13.316;2023-08-17T02:59:12;8.07;;;2.83;;
10659;SDS011;5378;53.206;13.316;2023-08-17T03:01:59;3.43;;;2.10;;
10659;SDS011;5378;53.206;13.316;2023-08-17T03:04:48;3.73;;;2.47;;
10659;SDS011;5378;53.206;13.316;2023-08-17T03:07:35;3.00;;;2.17;;
10659;SDS011;5378;53.206;13.316;2023-08-17T03:10:23;3.80;;;2.60;;
10659;SDS011;5378;53.206;13.316;2023-08-17T03:13:10;9.03;;;2.83;;
10659;SDS011;5378;53.206;13.316;2023-08-17T03:15:58;11.70;;;2.00;;
10659;SDS011;5378;53.206;13.316;2023-08-17T03:18:45;4.60;;;2.23;;
10659;SDS011;5378;53.206;13.316;2023-08-17T03:21:34;4.53;;;2.97;;
10659;SDS011;5378;53.206;13.316;2023-08-17T03:24:22;5.40;;;2.47;;
10659;SDS011;5378;53.206;13.316;2023-08-17T03:27:09;9.40;;;2.87;;
10659;SDS011;5378;53.206;13.316;2023-08-17T03:29:57;8.10;;;2.60;;
10659;SDS011;5378;53.206;13.316;2023-08-17T03:32:44;1.93;;;1.77;;
10659;SDS011;5378;53.206;13.316;2023-08-17T03:35:31;7.10;;;2.10;;
10659;SDS011;5378;53.206;13.316;2023-08-17T03:38:20;9.77;;;1.90;;
10659;SDS011;5378;53.206;13.316;2023-08-17T03:41:07;11.33;;;2.80;;
10659;SDS011;5378;53.206;13.316;2023-08-17T03:43:55;6.30;;;2.30;;
10659;SDS011;5378;53.206;13.316;2023-08-17T03:46:42;10.40;;;3.20;;
10659;SDS011;5378;53.206;13.316;2023-08-17T03:49:29;4.07;;;1.90;;
10659;SDS011;5378;53.206;13.316;2023-08-17T03:52:17;8.90;;;2.23;;
10659;SDS011;5378;53.206;13.316;2023-08-17T03:55:07;4.80;;;2.30;;
10659;SDS011;5378;53.206;13.316;2023-08-17T03:57:54;12.67;;;2.30;;
10659;SDS011;5378;53.206;13.316;2023-08-17T04:00:42;4.27;;;1.77;;
10659;SDS011;5378;53.206;13.316;2023-08-17T04:03:34;9.93;;;2.40;;
10659;SDS011;5378;53.206;13.316;2023-08-17T04:06:22;7.40;;;2.33;;
10659;SDS011;5378;53.206;13.316;2023-08-17T04:09:09;4.40;;;2.20;;
10659;SDS011;5378;53.206;13.316;2023-08-17T04:11:57;8.13;;;2.30;;
10659;SDS011;5378;53.206;13.316;2023-08-17T04:14:45;5.23;;;1.77;;
10659;SDS011;5378;53.206;13.316;2023-08-17T04:17:32;6.23;;;1.87;;
10659;SDS011;5378;53.206;13.316;2023-08-17T04:20:18;8.93;;;2.13;;
10659;SDS011;5378;53.206;13.316;2023-08-17T04:23:07;7.40;;;2.47;;
10659;SDS011;5378;53.206;13.316;2023-08-17T04:25:54;4.20;;;1.80;;
10659;SDS011;5378;53.206;13.316;2023-08-17T04:28:43;6.67;;;1.80;;
10659;SDS011;5378;53.206;13.316;2023-08-17T04:31:30;5.97;;;2.07;;
10659;SDS011;5378;53.206;13.316;2023-08-17T04:34:19;3.57;;;1.90;;
10659;SDS011;5378;53.206;13.316;2023-08-17T04:37:07;3.27;;;1.73;;
10659;SDS011;5378;53.206;13.316;2023-08-17T04:39:54;8.67;;;1.40;;
10659;SDS011;5378;53.206;13.316;2023-08-17T04:42:41;4.70;;;1.50;;
10659;SDS011;5378;53.206;13.316;2023-08-17T04:45:30;9.70;;;1.53;;
10659;SDS011;5378;53.206;13.316;2023-08-17T04:48:18;7.93;;;1.53;;
10659;SDS011;5378;53.206;13.316;2023-08-17T04:51:06;2.23;;;1.47;;
10659;SDS011;5378;53.206;13.316;2023-08-17T04:53:53;4.30;;;1.40;;
10659;SDS011;5378;53.206;13.316;2023-08-17T04:56:41;2.90;;;1.10;;
10659;SDS011;5378;53.206;13.316;2023-08-17T04:59:28;6.10;;;1.70;;
10659;SDS011;5378;53.206;13.316;2023-08-17T05:02:17;6.20;;;1.47;;
10659;SDS011;5378;53.206;13.316;2023-08-17T05:05:04;2.30;;;1.10;;
10659;SDS011;5378;53.206;13.316;2023-08-17T05:07:52;7.00;;;1.70;;
10659;SDS011;5378;53.206;13.316;2023-08-17T05:10:40;4.80;;;1.10;;
10659;SDS011;5378;53.206;13.316;2023-08-17T05:13:28;2.70;;;1.80;;
10659;SDS011;5378;53.206;13.316;2023-08-17T05:16:18;5.70;;;1.83;;
10659;SDS011;5378;53.206;13.316;2023-08-17T05:19:06;6.53;;;1.40;;
10659;SDS011;5378;53.206;13.316;2023-08-17T05:21:53;3.70;;;1.83;;
10659;SDS011;5378;53.206;13.316;2023-08-17T05:24:41;3.60;;;1.17;;
10659;SDS011;5378;53.206;13.316;2023-08-17T05:27:28;4.13;;;1.73;;
10659;SDS011;5378;53.206;13.316;2023-08-17T05:30:15;7.67;;;1.77;;
10659;SDS011;5378;53.206;13.316;2023-08-17T05:33:03;4.30;;;1.47;;
10659;SDS011;5378;53.206;13.316;2023-08-17T05:35:54;3.47;;;1.20;;
10659;SDS011;5378;53.206;13.316;2023-08-17T05:38:41;2.07;;;1.30;;
10659;SDS011;5378;53.206;13.316;2023-08-17T05:41:29;8.93;;;1.23;;
10659;SDS011;5378;53.206;13.316;2023-08-17T05:44:16;3.90;;;0.80;;
10659;SDS011;5378;53.206;13.316;2023-08-17T05:47:04;3.40;;;1.00;;
10659;SDS011;5378;53.206;13.316;2023-08-17T05:49:51;1.60;;;0.90;;
10659;SDS011;5378;53.206;13.316;2023-08-17T05:52:40;2.50;;;0.70;;
10659;SDS011;5378;53.206;13.316;2023-08-17T05:55:27;2.53;;;0.87;;
10659;SDS011;5378;53.206;13.316;2023-08-17T05:58:14;1.60;;;0.67;;
10659;SDS011;5378;53.206;13.316;2023-08-17T06:01:05;3.07;;;1.23;;
10659;SDS011;5378;53.206;13.316;2023-08-17T06:03:53;1.50;;;0.87;;
10659;SDS011;5378;53.206;13.316;2023-08-17T06:06:40;1.57;;;1.47;;
10659;SDS011;5378;53.206;13.316;2023-08-17T06:09:28;2.30;;;0.60;;
10659;SDS011;5378;53.206;13.316;2023-08-17T06:12:15;1.30;;;0.80;;
10659;SDS011;5378;53.206;13.316;2023-08-17T06:15:04;1.60;;;0.60;;
10659;SDS011;5378;53.206;13.316;2023-08-17T06:17:52;1.80;;;0.73;;
10659;SDS011;5378;53.206;13.316;2023-08-17T06:20:39;0.80;;;0.60;;
10659;SDS011;5378;53.206;13.316;2023-08-17T06:23:27;1.87;;;0.53;;
10659;SDS011;5378;53.206;13.316;2023-08-17T06:26:16;1.30;;;0.60;;
10659;SDS011;5378;53.206;13.316;2023-08-17T06:29:03;0.97;;;0.40;;
10659;SDS011;5378;53.206;13.316;2023-08-17T06:31:51;2.33;;;0.70;;
10659;SDS011;5378;53.206;13.316;2023-08-17T06:34:39;2.70;;;0.60;;
10659;SDS011;5378;53.206;13.316;2023-08-17T06:37:26;1.07;;;0.77;;
10659;SDS011;5378;53.206;13.316;2023-08-17T06:40:14;1.97;;;0.90;;
10659;SDS011;5378;53.206;13.316;2023-08-17T06:43:02;3.27;;;0.60;;
10659;SDS011;5378;53.206;13.316;2023-08-17T06:45:50;1.80;;;0.70;;
10659;SDS011;5378;53.206;13.316;2023-08-17T06:48:37;1.57;;;0.60;;
10659;SDS011;5378;53.206;13.316;2023-08-17T06:51:24;3.70;;;0.70;;
10659;SDS011;5378;53.206;13.316;2023-08-17T06:54:11;1.40;;;0.60;;
10659;SDS011;5378;53.206;13.316;2023-08-17T06:56:58;2.10;;;0.60;;
10659;SDS011;5378;53.206;13.316;2023-08-17T06:59:47;2.83;;;0.60;;
10659;SDS011;5378;53.206;13.316;2023-08-17T07:02:34;7.00;;;0.67;;
10659;SDS011;5378;53.206;13.316;2023-08-17T07:05:32;1.00;;;0.60;;
10659;SDS011;5378;53.206;13.316;2023-08-17T07:08:20;4.63;;;0.70;;
10659;SDS011;5378;53.206;13.316;2023-08-17T07:11:07;0.90;;;0.80;;
10659;SDS011;5378;53.206;13.316;2023-08-17T07:13:54;0.90;;;0.50;;
10659;SDS011;5378;53.206;13.316;2023-08-17T07:16:43;1.47;;;0.50;;
10659;SDS011;5378;53.206;13.316;2023-08-17T07:19:30;2.20;;;0.70;;
10659;SDS011;5378;53.206;13.316;2023-08-17T07:22:30;1.47;;;0.67;;
10659;SDS011;5378;53.206;13.316;2023-08-17T07:25:17;0.80;;;0.50;;
10659;SDS011;5378;53.206;13.316;2023-08-17T07:28:04;4.23;;;0.60;;
10659;SDS011;5378;53.206;13.316;2023-08-17T07:30:52;1.10;;;0.57;;
10659;SDS011;5378;53.206;13.316;2023-08-17T07:33:41;1.67;;;0.50;;
10659;SDS011;5378;53.206;13.316;2023-08-17T07:36:28;3.37;;;1.00;;
10659;SDS011;5378;53.206;13.316;2023-08-17T07:39:15;3.93;;;0.70;;
10659;SDS011;5378;53.206;13.316;2023-08-17T07:42:04;2.63;;;0.60;;
10659;SDS011;5378;53.206;13.316;2023-08-17T07:44:51;1.10;;;0.43;;
10659;SDS011;5378;53.206;13.316;2023-08-17T07:47:38;1.23;;;0.50;;
10659;SDS011;5378;53.206;13.316;2023-08-17T07:50:27;1.13;;;0.53;;
10659;SDS011;5378;53.206;13.316;2023-08-17T07:53:14;1.00;;;0.60;;
10659;SDS011;5378;53.206;13.316;2023-08-17T07:56:01;1.50;;;0.60;;
10659;SDS011;5378;53.206;13.316;2023-08-17T07:58:49;0.90;;;0.60;;
10659;SDS011;5378;53.206;13.316;2023-08-17T08:01:36;0.70;;;0.40;;
10659;SDS011;5378;53.206;13.316;2023-08-17T08:04:25;0.70;;;0.40;;
10659;SDS011;5378;53.206;13.316;2023-08-17T08:07:14;1.13;;;0.53;;
10659;SDS011;5378;53.206;13.316;2023-08-17T08:10:01;1.30;;;0.50;;
10659;SDS011;5378;53.206;13.316;2023-08-17T08:12:49;4.13;;;0.80;;
10659;SDS011;5378;53.206;13.316;2023-08-17T08:15:36;2.00;;;0.80;;
10659;SDS011;5378;53.206;13.316;2023-08-17T08:18:24;1.03;;;0.60;;
10659;SDS011;5378;53.206;13.316;2023-08-17T08:21:11;1.00;;;0.70;;
10659;SDS011;5378;53.206;13.316;2023-08-17T08:23:59;1.07;;;0.60;;
10659;SDS011;5378;53.206;13.316;2023-08-17T08:26:46;2.50;;;0.70;;
10659;SDS011;5378;53.206;13.316;2023-08-17T08:29:33;4.07;;;0.60;;
10659;SDS011;5378;53.206;13.316;2023-08-17T08:32:20;1.40;;;0.50;;
10659;SDS011;5378;53.206;13.316;2023-08-17T08:35:08;2.07;;;0.73;;
10659;SDS011;5378;53.206;13.316;2023-08-17T08:37:55;1.93;;;0.90;;
10659;SDS011;5378;53.206;13.316;2023-08-17T08:40:45;1.07;;;0.50;;
10659;SDS011;5378;53.206;13.316;2023-08-17T08:43:34;0.83;;;0.70;;
10659;SDS011;5378;53.206;13.316;2023-08-17T08:46:22;1.20;;;0.63;;
10659;SDS011;5378;53.206;13.316;2023-08-17T08:49:12;4.50;;;0.90;;
10659;SDS011;5378;53.206;13.316;2023-08-17T08:52:04;6.07;;;0.97;;
10659;SDS011;5378;53.206;13.316;2023-08-17T08:54:54;1.47;;;1.27;;
10659;SDS011;5378;53.206;13.316;2023-08-17T08:57:44;2.27;;;1.20;;
10659;SDS011;5378;53.206;13.316;2023-08-17T09:00:36;6.33;;;0.83;;
10659;SDS011;5378;53.206;13.316;2023-08-17T09:03:25;1.10;;;0.80;;
10659;SDS011;5378;53.206;13.316;2023-08-17T09:06:13;1.00;;;0.90;;
10659;SDS011;5378;53.206;13.316;2023-08-17T09:09:01;2.10;;;1.23;;
10659;SDS011;5378;53.206;13.316;2023-08-17T09:11:49;1.63;;;1.10;;
10659;SDS011;5378;53.206;13.316;2023-08-17T09:14:37;1.53;;;1.03;;
10659;SDS011;5378;53.206;13.316;2023-08-17T09:17:26;1.40;;;0.80;;
10659;SDS011;5378;53.206;13.316;2023-08-17T09:23:23;1.33;;;0.50;;
10659;SDS011;5378;53.206;13.316;2023-08-17T09:26:10;2.63;;;0.87;;
10659;SDS011;5378;53.206;13.316;2023-08-17T09:28:57;1.70;;;0.60;;
10659;SDS011;5378;53.206;13.316;2023-08-17T09:31:48;0.87;;;0.80;;
10659;SDS011;5378;53.206;13.316;2023-08-17T09:34:35;7.27;;;0.97;;
10659;SDS011;5378;53.206;13.316;2023-08-17T09:37:26;2.80;;;0.73;;
10659;SDS011;5378;53.206;13.316;2023-08-17T09:40:14;1.67;;;1.00;;
10659;SDS011;5378;53.206;13.316;2023-08-17T09:43:06;1.03;;;0.77;;
10659;SDS011;5378;53.206;13.316;2023-08-17T09:45:55;2.27;;;0.90;;
10659;SDS011;5378;53.206;13.316;2023-08-17T09:48:44;2.30;;;0.70;;
10659;SDS011;5378;53.206;13.316;2023-08-17T09:51:32;1.77;;;0.60;;
10659;SDS011;5378;53.206;13.316;2023-08-17T09:54:20;4.43;;;0.70;;
10659;SDS011;5378;53.206;13.316;2023-08-17T09:57:09;1.17;;;0.67;;
10659;SDS011;5378;53.206;13.316;2023-08-17T09:59:56;1.27;;;0.50;;
10659;SDS011;5378;53.206;13.316;2023-08-17T10:02:43;3.17;;;0.90;;
10659;SDS011;5378;53.206;13.316;2023-08-17T10:05:34;0.87;;;0.40;;
10659;SDS011;5378;53.206;13.316;2023-08-17T10:08:25;1.23;;;0.40;;
10659;SDS011;5378;53.206;13.316;2023-08-17T10:11:15;1.57;;;0.67;;
10659;SDS011;5378;53.206;13.316;2023-08-17T10:14:06;1.20;;;0.53;;
10659;SDS011;5378;53.206;13.316;2023-08-17T10:17:01;3.03;;;0.90;;
10659;SDS011;5378;53.206;13.316;2023-08-17T10:19:55;1.60;;;0.60;;
10659;SDS011;5378;53.206;13.316;2023-08-17T10:22:47;1.30;;;0.63;;
10659;SDS011;5378;53.206;13.316;2023-08-17T10:25:38;1.33;;;0.40;;
10659;SDS011;5378;53.206;13.316;2023-08-17T10:28:27;1.00;;;0.77;;
10659;SDS011;5378;53.206;13.316;2023-08-17T10:31:15;1.20;;;0.70;;
10659;SDS011;5378;53.206;13.316;2023-08-17T10:34:02;1.17;;;0.60;;
10659;SDS011;5378;53.206;13.316;2023-08-17T10:36:53;4.87;;;0.80;;
10659;SDS011;5378;53.206;13.316;2023-08-17T10:39:47;1.00;;;0.90;;
10659;SDS011;5378;53.206;13.316;2023-08-17T10:42:35;1.87;;;0.80;;
10659;SDS011;5378;53.206;13.316;2023-08-17T10:45:26;1.60;;;0.77;;
10659;SDS011;5378;53.206;13.316;2023-08-17T10:48:26;1.20;;;1.07;;
10659;SDS011;5378;53.206;13.316;2023-08-17T10:51:24;1.00;;;0.93;;
10659;SDS011;5378;53.206;13.316;2023-08-17T10:54:11;1.20;;;0.80;;
10659;SDS011;5378;53.206;13.316;2023-08-17T10:56:59;1.67;;;0.80;;
10659;SDS011;5378;53.206;13.316;2023-08-17T11:00:19;1.50;;;1.13;;
10659;SDS011;5378;53.206;13.316;2023-08-17T11:03:17;1.30;;;1.10;;
10659;SDS011;5378;53.206;13.316;2023-08-17T11:06:15;5.53;;;0.80;;
10659;SDS011;5378;53.206;13.316;2023-08-17T11:09:06;5.57;;;1.17;;
10659;SDS011;5378;53.206;13.316;2023-08-17T11:11:54;2.40;;;1.40;;
10659;SDS011;5378;53.206;13.316;2023-08-17T11:14:45;2.37;;;1.30;;
10659;SDS011;5378;53.206;13.316;2023-08-17T11:17:32;2.60;;;1.50;;
10659;SDS011;5378;53.206;13.316;2023-08-17T11:20:19;1.70;;;1.47;;
10659;SDS011;5378;53.206;13.316;2023-08-17T11:23:10;2.30;;;1.53;;
10659;SDS011;5378;53.206;13.316;2023-08-17T11:25:57;1.60;;;1.10;;
10659;SDS011;5378;53.206;13.316;2023-08-17T11:28:45;2.47;;;1.40;;
10659;SDS011;5378;53.206;13.316;2023-08-17T11:31:39;2.43;;;0.93;;
10659;SDS011;5378;53.206;13.316;2023-08-17T11:34:28;1.93;;;1.03;;
10659;SDS011;5378;53.206;13.316;2023-08-17T11:37:16;1.70;;;1.00;;
10659;SDS011;5378;53.206;13.316;2023-08-17T11:40:04;2.00;;;0.90;;
10659;SDS011;5378;53.206;13.316;2023-08-17T11:42:51;1.30;;;0.80;;
10659;SDS011;5378;53.206;13.316;2023-08-17T11:45:39;4.43;;;1.17;;
10659;SDS011;5378;53.206;13.316;2023-08-17T11:48:28;6.63;;;1.30;;
10659;SDS011;5378;53.206;13.316;2023-08-17T11:51:27;2.53;;;1.20;;
10659;SDS011;5378;53.206;13.316;2023-08-17T11:54:15;2.47;;;0.90;;
10659;SDS011;5378;53.206;13.316;2023-08-17T11:57:02;2.70;;;1.37;;
10659;SDS011;5378;53.206;13.316;2023-08-17T11:59:52;1.13;;;0.97;;
10659;SDS011;5378;53.206;13.316;2023-08-17T12:02:43;3.10;;;1.23;;
10659;SDS011;5378;53.206;13.316;2023-08-17T12:05:35;7.73;;;1.43;;
10659;SDS011;5378;53.206;13.316;2023-08-17T12:08:22;2.13;;;1.13;;
10659;SDS011;5378;53.206;13.316;2023-08-17T12:11:10;0.80;;;0.70;;
10659;SDS011;5378;53.206;13.316;2023-08-17T12:13:58;1.50;;;1.00;;
10659;SDS011;5378;53.206;13.316;2023-08-17T12:16:48;1.00;;;0.90;;
10659;SDS011;5378;53.206;13.316;2023-08-17T12:19:38;2.07;;;0.90;;
10659;SDS011;5378;53.206;13.316;2023-08-17T12:22:29;2.03;;;1.03;;
10659;SDS011;5378;53.206;13.316;2023-08-17T12:25:23;1.80;;;1.20;;
10659;SDS011;5378;53.206;13.316;2023-08-17T12:28:12;1.77;;;1.10;;
10659;SDS011;5378;53.206;13.316;2023-08-17T12:30:59;6.87;;;1.30;;
10659;SDS011;5378;53.206;13.316;2023-08-17T12:33:49;2.20;;;0.90;;
10659;SDS011;5378;53.206;13.316;2023-08-17T12:36:36;2.20;;;1.47;;
10659;SDS011;5378;53.206;13.316;2023-08-17T12:39:25;1.83;;;1.30;;
10659;SDS011;5378;53.206;13.316;2023-08-17T12:42:12;2.37;;;1.30;;
10659;SDS011;5378;53.206;13.316;2023-08-17T12:45:00;1.67;;;1.20;;
10659;SDS011;5378;53.206;13.316;2023-08-17T12:47:49;1.20;;;0.90;;
10659;SDS011;5378;53.206;13.316;2023-08-17T12:50:36;1.60;;;1.30;;
10659;SDS011;5378;53.206;13.316;2023-08-17T12:53:27;2.97;;;1.10;;
10659;SDS011;5378;53.206;13.316;2023-08-17T12:56:18;3.10;;;1.03;;
10659;SDS011;5378;53.206;13.316;2023-08-17T12:59:06;2.10;;;1.30;;
10659;SDS011;5378;53.206;13.316;2023-08-17T13:01:53;1.50;;;1.20;;
10659;SDS011;5378;53.206;13.316;2023-08-17T13:04:41;1.57;;;1.10;;
10659;SDS011;5378;53.206;13.316;2023-08-17T13:07:28;2.70;;;1.40;;
10659;SDS011;5378;53.206;13.316;2023-08-17T13:10:20;3.90;;;1.03;;
10659;SDS011;5378;53.206;13.316;2023-08-17T13:13:09;5.00;;;1.03;;
10659;SDS011;5378;53.206;13.316;2023-08-17T13:15:56;2.27;;;1.77;;
10659;SDS011;5378;53.206;13.316;2023-08-17T13:18:43;1.67;;;1.00;;
10659;SDS011;5378;53.206;13.316;2023-08-17T13:21:30;3.10;;;1.43;;
10659;SDS011;5378;53.206;13.316;2023-08-17T13:24:17;5.20;;;1.57;;
10659;SDS011;5378;53.206;13.316;2023-08-17T13:27:04;6.50;;;1.30;;
10659;SDS011;5378;53.206;13.316;2023-08-17T13:29:55;2.00;;;1.33;;
10659;SDS011;5378;53.206;13.316;2023-08-17T13:32:44;1.80;;;1.10;;
10659;SDS011;5378;53.206;13.316;2023-08-17T13:35:31;11.23;;;1.30;;
10659;SDS011;5378;53.206;13.316;2023-08-17T13:38:18;6.10;;;1.23;;
10659;SDS011;5378;53.206;13.316;2023-08-17T13:41:05;4.30;;;1.53;;
10659;SDS011;5378;53.206;13.316;2023-08-17T13:43:52;1.30;;;0.97;;
10659;SDS011;5378;53.206;13.316;2023-08-17T13:46:42;1.60;;;1.50;;
10659;SDS011;5378;53.206;13.316;2023-08-17T13:49:30;4.13;;;1.27;;
10659;SDS011;5378;53.206;13.316;2023-08-17T13:52:17;2.17;;;1.40;;
10659;SDS011;5378;53.206;13.316;2023-08-17T13:55:04;1.63;;;1.40;;
10659;SDS011;5378;53.206;13.316;2023-08-17T13:57:52;2.17;;;1.27;;
10659;SDS011;5378;53.206;13.316;2023-08-17T14:00:41;1.43;;;1.07;;
10659;SDS011;5378;53.206;13.316;2023-08-17T14:03:29;1.73;;;1.03;;
10659;SDS011;5378;53.206;13.316;2023-08-17T14:06:17;3.60;;;1.90;;
10659;SDS011;5378;53.206;13.316;2023-08-17T14:09:04;1.93;;;1.37;;
10659;SDS011;5378;53.206;13.316;2023-08-17T14:11:51;2.33;;;1.30;;
10659;SDS011;5378;53.206;13.316;2023-08-17T14:14:38;4.13;;;1.73;;
10659;SDS011;5378;53.206;13.316;2023-08-17T14:17:26;4.87;;;1.17;;
10659;SDS011;5378;53.206;13.316;2023-08-17T14:20:16;3.80;;;1.40;;
10659;SDS011;5378;53.206;13.316;2023-08-17T14:23:03;4.10;;;1.37;;
10659;SDS011;5378;53.206;13.316;2023-08-17T14:25:53;5.30;;;1.60;;
10659;SDS011;5378;53.206;13.316;2023-08-17T14:28:40;1.53;;;1.30;;
10659;SDS011;5378;53.206;13.316;2023-08-17T14:31:29;2.30;;;1.70;;
10659;SDS011;5378;53.206;13.316;2023-08-17T14:34:16;4.00;;;1.67;;
10659;SDS011;5378;53.206;13.316;2023-08-17T14:37:04;3.50;;;1.13;;
10659;SDS011;5378;53.206;13.316;2023-08-17T14:39:51;6.30;;;1.40;;
10659;SDS011;5378;53.206;13.316;2023-08-17T14:42:44;2.03;;;1.40;;
10659;SDS011;5378;53.206;13.316;2023-08-17T14:45:31;2.20;;;1.40;;
10659;SDS011;5378;53.206;13.316;2023-08-17T14:48:19;6.47;;;1.73;;
10659;SDS011;5378;53.206;13.316;2023-08-17T14:51:06;3.37;;;1.23;;
10659;SDS011;5378;53.206;13.316;2023-08-17T14:53:54;5.43;;;1.70;;
10659;SDS011;5378;53.206;13.316;2023-08-17T14:56:42;3.57;;;1.43;;
10659;SDS011;5378;53.206;13.316;2023-08-17T14:59:29;1.70;;;1.10;;
10659;SDS011;5378;53.206;13.316;2023-08-17T15:02:16;3.13;;;1.60;;
10659;SDS011;5378;53.206;13.316;2023-08-17T15:05:06;2.87;;;1.17;;
10659;SDS011;5378;53.206;13.316;2023-08-17T15:07:56;1.83;;;1.07;;
10659;SDS011;5378;53.206;13.316;2023-08-17T15:10:45;1.37;;;0.80;;
10659;SDS011;5378;53.206;13.316;2023-08-17T15:13:42;1.60;;;1.20;;
10659;SDS011;5378;53.206;13.316;2023-08-17T15:16:29;1.70;;;1.17;;
10659;SDS011;5378;53.206;13.316;2023-08-17T15:19:16;5.77;;;1.07;;
10659;SDS011;5378;53.206;13.316;2023-08-17T15:22:16;2.20;;;1.13;;
10659;SDS011;5378;53.206;13.316;2023-08-17T15:25:04;4.40;;;1.17;;
10659;SDS011;5378;53.206;13.316;2023-08-17T15:27:52;2.00;;;1.13;;
10659;SDS011;5378;53.206;13.316;2023-08-17T15:30:40;6.47;;;1.00;;
10659;SDS011;5378;53.206;13.316;2023-08-17T15:33:27;1.83;;;1.00;;
10659;SDS011;5378;53.206;13.316;2023-08-17T15:36:14;1.87;;;1.17;;
10659;SDS011;5378;53.206;13.316;2023-08-17T15:39:04;8.13;;;1.17;;
10659;SDS011;5378;53.206;13.316;2023-08-17T15:41:55;1.73;;;1.20;;
10659;SDS011;5378;53.206;13.316;2023-08-17T15:44:46;3.30;;;1.60;;
10659;SDS011;5378;53.206;13.316;2023-08-17T15:47:36;4.00;;;1.60;;
10659;SDS011;5378;53.206;13.316;2023-08-17T15:50:24;1.83;;;1.00;;
10659;SDS011;5378;53.206;13.316;2023-08-17T15:53:11;2.13;;;1.23;;
10659;SDS011;5378;53.206;13.316;2023-08-17T15:55:58;1.30;;;1.03;;
10659;SDS011;5378;53.206;13.316;2023-08-17T15:58:45;3.67;;;1.10;;
10659;SDS011;5378;53.206;13.316;2023-08-17T16:01:37;1.60;;;1.00;;
10659;SDS011;5378;53.206;13.316;2023-08-17T16:04:24;1.80;;;0.97;;
10659;SDS011;5378;53.206;13.316;2023-08-17T16:07:11;1.90;;;0.80;;
10659;SDS011;5378;53.206;13.316;2023-08-17T16:09:59;10.53;;;1.33;;
10659;SDS011;5378;53.206;13.316;2023-08-17T16:12:46;2.90;;;1.27;;
10659;SDS011;5378;53.206;13.316;2023-08-17T16:15:33;2.70;;;1.50;;
10659;SDS011;5378;53.206;13.316;2023-08-17T16:18:21;1.00;;;0.90;;
10659;SDS011;5378;53.206;13.316;2023-08-17T16:21:09;16.43;;;1.50;;
10659;SDS011;5378;53.206;13.316;2023-08-17T16:23:58;2.30;;;1.00;;
10659;SDS011;5378;53.206;13.316;2023-08-17T16:26:46;1.20;;;1.10;;
10659;SDS011;5378;53.206;13.316;2023-08-17T16:29:33;2.37;;;1.30;;
10659;SDS011;5378;53.206;13.316;2023-08-17T16:32:20;4.37;;;1.27;;
10659;SDS011;5378;53.206;13.316;2023-08-17T16:35:09;4.00;;;1.07;;
10659;SDS011;5378;53.206;13.316;2023-08-17T16:37:56;2.47;;;0.90;;
10659;SDS011;5378;53.206;13.316;2023-08-17T16:40:43;2.10;;;1.07;;
10659;SDS011;5378;53.206;13.316;2023-08-17T16:43:30;1.70;;;1.07;;
10659;SDS011;5378;53.206;13.316;2023-08-17T16:46:17;1.73;;;1.17;;
10659;SDS011;5378;53.206;13.316;2023-08-17T16:49:05;2.70;;;1.00;;
10659;SDS011;5378;53.206;13.316;2023-08-17T16:51:54;2.73;;;1.00;;
10659;SDS011;5378;53.206;13.316;2023-08-17T16:54:41;1.07;;;0.97;;
10659;SDS011;5378;53.206;13.316;2023-08-17T16:57:32;1.67;;;0.87;;
10659;SDS011;5378;53.206;13.316;2023-08-17T17:00:19;2.13;;;0.80;;